CheckWX is a tool to help pilots better visualize weather data.  It is not intended as a substitute for an official pre-flight weather briefing.

00:28:40 UTC

KLGB METAR
Long Beach / Daugherty Field / Airport
Long Beach, California, USA
Current

36 mins ago

KLGB 242353Z 30010KT 10SM CLR 19/11 A3009 RMK AO2 SLP190 T01890106 10211 20161 56017
Observed
Feb-24 @ 23:53 UTC
Wind
  • 300° at 10 KTS
Visibility
10 SM
Flight Rules
VFR
Cloud Levels
  • Clear skies
Temperature
19°C / 66°F
Dewpoint
11°C / 52°F
Humidity
60%
Altimeter
30.09" Hg
Pressure
1018.92 hPa
Previous

2 hours ago

KLGB 242253Z 31009KT 10SM CLR 19/10 A3011 RMK AO2 SLP195 T01940100
Observed
Feb-24 @ 22:53 UTC
Wind
  • 310° at 9 KTS
Visibility
10 SM
Flight Rules
VFR
Cloud Levels
  • Clear skies
Temperature
19°C / 66°F
Dewpoint
10°C / 50°F
Humidity
56%
Altimeter
30.11" Hg
Pressure
1019.62 hPa
Previous

3 hours ago

KLGB 242153Z 28006KT 10SM CLR 19/09 A3012 RMK AO2 SLP200 T01940094
Observed
Feb-24 @ 21:53 UTC
Wind
  • 280° at 6 KTS
Visibility
10 SM
Flight Rules
VFR
Cloud Levels
  • Clear skies
Temperature
19°C / 66°F
Dewpoint
C / 48°F
Humidity
52%
Altimeter
30.12" Hg
Pressure
1020.02 hPa